Terminal Aerodrome Forecast
Issued by NWS

Home | Current Version | Previous Version | Text Only | Print | Product List | Glossary On
Versions: 1 2 3 4 5 6 7 8 9 10 11 12 13 14 15 16 17 18
000
FTUS42 KMHX 301129
TAFOAJ
TAF
KOAJ 301129Z 3012/0112 21008KT P6SM SKC
     FM301700 19011G18KT P6SM SCT060
     FM010000 21009KT P6SM SCT060 BKN120
      AMD LTD TO CLD VIS AND WIND=

USA.gov is the U.S. government's official web portal to all federal, state and local government web resources and services.